Latest Weather Observations for Fort Denison

IDN60901

Issued at 7:01 pm EDT Wednesday 29 January 2020 (issued every 10 minutes, with the page automatically refreshed every 10 minutes)

About weather observations | Map of Sydney area stations | Latest observations for Sydney area | Other Formats
Station Details ID: 066022 Name: FORT DENISON Lat: -33.86 Lon: 151.23 Height: 5.0 m
Data from the previous 72 hours. | See also: Recent months for locations in New South Wales
Date/Time
EDT
Temp
°C
App
Temp
°C
Dew
Point
°C
Rel
Hum
%
Delta-T
°C
Wind Press
QNH
hPa
Press
MSL
hPa
Rain since
9am
mm
Dir  Spd
km/h
Gust
km/h
Spd
kts
Gust
kts
29/07:00pm - - - - - ESE 20 26 11 14 - - -
29/06:30pm - - - - - SE 22 30 12 16 - - -
29/06:00pm - - - - - SE 20 30 11 16 - - -
29/05:30pm - - - - - ESE 24 32 13 17 - - -
29/05:00pm - - - - - ESE 20 32 11 17 - - -
29/04:30pm - - - - - ESE 20 28 11 15 - - -
29/04:00pm - - - - - ESE 17 26 9 14 - - -
29/03:30pm - - - - - ESE 20 26 11 14 - - -
29/03:00pm - - - - - SE 15 24 8 13 - - -
29/02:30pm - - - - - SE 17 28 9 15 - - -
29/02:00pm - - - - - SSE 17 26 9 14 - - -
29/01:30pm - - - - - SE 13 20 7 11 - - -
29/01:00pm - - - - - SSE 17 24 9 13 - - -
29/12:30pm - - - - - SSE 15 20 8 11 - - -
29/12:00pm - - - - - SE 15 22 8 12 - - -
29/11:30am - - - - - S 17 24 9 13 - - -
29/11:00am - - - - - SSE 13 20 7 11 - - -
29/10:30am - - - - - SSE 17 28 9 15 - - -
29/10:00am - - - - - SSW 17 26 9 14 - - -
29/09:30am - - - - - SSW 15 24 8 13 - - -
29/09:00am - - - - - S 17 32 9 17 - - -
29/08:30am - - - - - S 17 28 9 15 - - -
29/08:00am - - - - - S 13 19 7 10 - - -
29/07:30am - - - - - S 19 28 10 15 - - -
29/07:00am - - - - - S 15 28 8 15 - - -
29/06:30am - - - - - S 22 33 12 18 - - -
29/06:00am - - - - - SSW 17 24 9 13 - - -
29/05:30am - - - - - S 19 30 10 16 - - -
29/05:00am - - - - - SSW 19 32 10 17 - - -
29/04:30am - - - - - S 17 30 9 16 - - -
29/04:00am - - - - - SSW 17 26 9 14 - - -
29/03:30am - - - - - SSW 13 17 7 9 - - -
29/03:00am - - - - - SSW 15 22 8 12 - - -
29/02:30am - - - - - SSW 19 30 10 16 - - -
29/02:00am - - - - - SSW 20 33 11 18 - - -
29/01:30am - - - - - S 20 30 11 16 - - -
29/01:00am - - - - - SSW 19 32 10 17 - - -
29/12:30am - - - - - SSW 19 35 10 19 - - -
29/12:00am - - - - - SSW 15 20 8 11 - - -
 
Date/Time
EDT
Temp
°C
App
Temp
°C
Dew
Point
°C
Rel
Hum
%
Delta-T
°C
Wind Press
QNH
hPa
Press
MSL
hPa
Rain since
9am
mm
Dir  Spd
km/h
Gust
km/h
Spd
kts
Gust
kts
28/11:30pm - - - - - SSW 15 22 8 12 - - -
28/11:00pm - - - - - S 19 30 10 16 - - -
28/10:30pm - - - - - SSE 20 30 11 16 - - -
28/10:00pm - - - - - S 19 30 10 16 - - -
28/09:30pm - - - - - S 20 32 11 17 - - -
28/09:00pm - - - - - S 28 44 15 24 - - -
28/08:30pm - - - - - S 28 43 15 23 - - -
28/08:00pm - - - - - S 24 39 13 21 - - -
28/07:30pm - - - - - S 19 32 10 17 - - -
28/07:00pm - - - - - SSE 22 30 12 16 - - -
28/06:30pm - - - - - SSE 22 26 12 14 - - -
28/06:00pm - - - - - SE 17 22 9 12 - - -
28/05:30pm - - - - - ESE 13 15 7 8 - - -
28/05:00pm - - - - - ESE 17 20 9 11 - - -
28/04:30pm - - - - - E 19 24 10 13 - - -
28/04:00pm - - - - - E 20 26 11 14 - - -
28/03:30pm - - - - - E 19 24 10 13 - - -
28/03:00pm - - - - - E 17 20 9 11 - - -
28/02:30pm - - - - - ENE 19 22 10 12 - - -
28/02:00pm - - - - - E 17 19 9 10 - - -
28/01:30pm - - - - - ESE 17 19 9 10 - - -
28/01:00pm - - - - - E 15 17 8 9 - - -
28/12:30pm - - - - - E 15 19 8 10 - - -
28/12:00pm - - - - - ESE 15 17 8 9 - - -
28/11:30am - - - - - ESE 11 11 6 6 - - -
28/11:00am - - - - - E 11 13 6 7 - - -
28/10:30am - - - - - E 6 6 3 3 - - -
28/10:00am - - - - - S 6 11 3 6 - - -
28/09:30am - - - - - NNW 2 7 1 4 - - -
28/09:00am - - - - - W 6 13 3 7 - - -
28/08:30am - - - - - CALM 0 2 0 1 - - -
28/08:00am - - - - - E 4 4 2 2 - - -
28/07:30am - - - - - SW 2 4 1 2 - - -
28/07:00am - - - - - S 6 11 3 6 - - -
28/06:30am - - - - - WNW 6 9 3 5 - - -
28/06:00am - - - - - W 6 7 3 4 - - -
28/05:30am - - - - - SW 2 2 1 1 - - -
28/05:00am - - - - - NNW 2 4 1 2 - - -
28/04:30am - - - - - ENE 6 6 3 3 - - -
28/04:00am - - - - - CALM 0 2 0 1 - - -
28/03:30am - - - - - NNE 2 4 1 2 - - -
28/03:00am - - - - - NE 4 6 2 3 - - -
28/02:30am - - - - - NE 6 11 3 6 - - -
28/02:00am - - - - - NE 7 11 4 6 - - -
28/01:30am - - - - - ENE 13 20 7 11 - - -
28/01:00am - - - - - ENE 11 19 6 10 - - -
28/12:30am - - - - - ENE 9 15 5 8 - - -
28/12:00am - - - - - E 9 17 5 9 - - -
 
Date/Time
EDT
Temp
°C
App
Temp
°C
Dew
Point
°C
Rel
Hum
%
Delta-T
°C
Wind Press
QNH
hPa
Press
MSL
hPa
Rain since
9am
mm
Dir  Spd
km/h
Gust
km/h
Spd
kts
Gust
kts
27/11:30pm - - - - - NE 11 20 6 11 - - -
27/11:00pm - - - - - NE 11 19 6 10 - - -
27/10:30pm - - - - - ENE 7 15 4 8 - - -
27/10:00pm - - - - - NE 11 24 6 13 - - -
27/09:30pm - - - - - NE 13 24 7 13 - - -
27/09:00pm - - - - - NE 17 30 9 16 - - -
27/08:30pm - - - - - NNE 19 32 10 17 - - -
27/08:00pm - - - - - NE 19 32 10 17 - - -
27/07:30pm - - - - - NE 15 22 8 12 - - -
27/07:00pm - - - - - NE 17 28 9 15 - - -
27/06:30pm - - - - - E 17 20 9 11 - - -
27/06:00pm - - - - - E 11 17 6 9 - - -
27/05:30pm - - - - - E 15 17 8 9 - - -
27/05:00pm - - - - - ESE 13 19 7 10 - - -
27/04:30pm - - - - - ESE 13 19 7 10 - - -
27/04:00pm - - - - - ESE 17 22 9 12 - - -
27/03:30pm - - - - - ESE 17 20 9 11 - - -
27/03:00pm - - - - - ESE 17 20 9 11 - - -
27/02:30pm - - - - - ESE 17 22 9 12 - - -
27/02:00pm - - - - - ESE 17 20 9 11 - - -
27/01:30pm - - - - - SE 13 19 7 10 - - -
27/01:00pm - - - - - SSE 13 20 7 11 - - -
27/12:30pm - - - - - SSE 11 17 6 9 - - -
27/12:00pm - - - - - SSW 11 19 6 10 - - -
27/11:30am - - - - - SSW 11 17 6 9 - - -
27/11:00am - - - - - SSW 19 26 10 14 - - -
27/10:30am - - - - - SSW 20 32 11 17 - - -
27/10:00am - - - - - S 20 32 11 17 - - -
27/09:30am - - - - - S 17 28 9 15 - - -
27/09:00am - - - - - S 15 24 8 13 - - -
27/08:30am - - - - - SSW 15 24 8 13 - - -
27/08:00am - - - - - SW 20 33 11 18 - - -
27/07:30am - - - - - SSW 17 26 9 14 - - -
27/07:00am - - - - - SSW 15 24 8 13 - - -
27/06:30am - - - - - SSW 20 28 11 15 - - -
27/06:00am - - - - - SW 24 35 13 19 - - -
27/05:30am - - - - - SSW 20 33 11 18 - - -
27/05:00am - - - - - SSW 20 32 11 17 - - -
27/04:30am - - - - - SSW 19 28 10 15 - - -
27/04:00am - - - - - SW 17 30 9 16 - - -
27/03:30am - - - - - SSW 24 39 13 21 - - -
27/03:02am - - - - - SSW 28 46 15 25 - - -
27/03:00am - - - - - SSW 32 46 17 25 - - -
27/02:43am - - - - - SSW 32 54 17 29 - - -
27/02:30am - - - - - S 32 46 17 25 - - -
27/02:05am - - - - - S 33 52 18 28 - - -
27/02:00am - - - - - SSW 35 52 19 28 - - -
27/01:34am - - - - - S 32 50 17 27 - - -
27/01:30am - - - - - S 33 48 18 26 - - -
27/01:00am - - - - - SSW 30 48 16 26 - - -
27/12:31am - - - - - SSW 30 48 16 26 - - -
27/12:30am - - - - - SSW 32 48 17 26 - - -
27/12:00am - - - - - SSW 33 56 18 30 - - -
 
Date/Time
EDT
Temp
°C
App
Temp
°C
Dew
Point
°C
Rel
Hum
%
Delta-T
°C
Wind Press
QNH
hPa
Press
MSL
hPa
Rain since
9am
mm
Dir  Spd
km/h
Gust
km/h
Spd
kts
Gust
kts
26/11:56pm - - - - - SSW 28 52 15 28 - - -
26/11:30pm - - - - - W 6 7 3 4 - - -
26/11:00pm - - - - - SSW 2 4 1 2 - - -
26/10:30pm - - - - - NNE 6 9 3 5 - - -
26/10:00pm - - - - - E 6 11 3 6 - - -
26/09:30pm - - - - - E 4 7 2 4 - - -
26/09:00pm - - - - - NNE 2 6 1 3 - - -
26/08:30pm - - - - - S 4 7 2 4 - - -
26/08:00pm - - - - - NE 6 15 3 8 - - -
26/07:30pm - - - - - NE 13 20 7 11 - - -

Latest Capital City Observations: Canberra | Sydney | Melbourne | Brisbane | Adelaide | Perth | Hobart | Darwin

Other formats

Comma delimited format used in spreadsheet applications
http://www.bom.gov.au/fwo/IDN60901/IDN60901.94769.axf

JavaScript Object Notation format (JSON) in row-major order
http://www.bom.gov.au/fwo/IDN60901/IDN60901.94769.json

Data quality

Most of these data are generated automatically and are frequently updated. Quality checks on data are not normally performed. It is possible for incorrect values to appear. Refer to information at About Latest Weather Observations and please check the disclaimer before using these data.